Time;durP1;ratioP1;P1;durP2;ratioP2;P2;SDS_P1;SDS_P2;PMS_P1;PMS_P2;Temp;Humidity;BMP_temperature;BMP_pressure;BME280_temperature;BME280_humidity;BME280_pressure;Samples;Min_cycle;Max_cycle;Signal;HPM_P1;HPM_P2
2022/06/25 00:01:27;;;;;;;27.73;23.52;;;;;;;;;;5078138;28;20036;-69
2022/06/25 00:03:54;;;;;;;28.98;25.40;;;;;;;;;;5079336;28;20041;-69
2022/06/25 00:06:21;;;;;;;32.33;28.85;;;;;;;;;;5065371;28;20049;-69
2022/06/25 00:08:48;;;;;;;31.67;28.37;;;;;;;;;;5079411;28;20056;-69
2022/06/25 00:14:03;;;;;;;32.08;28.95;;;;;;;;;;5063698;28;20343;-69
2022/06/25 00:16:29;;;;;;;32.88;29.42;;;;;;;;;;5068518;28;20556;-68
2022/06/25 00:18:55;;;;;;;32.67;29.38;;;;;;;;;;5076558;28;20041;-68
2022/06/25 00:21:21;;;;;;;33.95;29.05;;;;;;;;;;5071977;28;20037;-68
2022/06/25 00:23:47;;;;;;;35.90;30.88;;;;;;;;;;5064583;28;20041;-68
2022/06/25 00:26:13;;;;;;;34.38;30.65;;;;;;;;;;5063599;28;20130;-70
2022/06/25 00:28:39;;;;;;;38.05;34.03;;;;;;;;;;5063266;28;20048;-67
2022/06/25 00:31:05;;;;;;;36.78;32.17;;;;;;;;;;5066546;28;20132;-67
2022/06/25 00:33:31;;;;;;;42.13;34.58;;;;;;;;;;5081103;28;20094;-67
2022/06/25 00:35:57;;;;;;;43.33;37.05;;;;;;;;;;5080531;28;20076;-68
2022/06/25 00:38:23;;;;;;;41.33;36.30;;;;;;;;;;5074132;28;20053;-68
2022/06/25 00:40:49;;;;;;;42.45;36.28;;;;;;;;;;5085928;28;20295;-69
2022/06/25 00:43:15;;;;;;;42.40;36.92;;;;;;;;;;5087036;28;20052;-69
2022/06/25 00:45:45;;;;;;;48.33;40.92;;;;;;;;;;5069991;28;20048;-68
2022/06/25 00:48:11;;;;;;;43.08;37.38;;;;;;;;;;5081775;28;20053;-68
2022/06/25 00:50:37;;;;;;;49.75;38.13;;;;;;;;;;5093963;28;20073;-68
2022/06/25 00:53:04;;;;;;;40.28;35.72;;;;;;;;;;5068675;28;20082;-68
2022/06/25 00:55:31;;;;;;;45.42;37.33;;;;;;;;;;5066863;28;20073;-68
2022/06/25 00:57:59;;;;;;;43.85;38.45;;;;;;;;;;5082107;28;20119;-68
2022/06/25 01:00:25;;;;;;;44.10;37.10;;;;;;;;;;5066660;28;20396;-69
2022/06/25 01:02:51;;;;;;;46.10;40.55;;;;;;;;;;5065724;28;20123;-68
2022/06/25 01:05:17;;;;;;;44.08;37.47;;;;;;;;;;5086332;28;20052;-68
2022/06/25 01:07:44;;;;;;;52.67;41.22;;;;;;;;;;5082968;28;20398;-69
2022/06/25 01:10:13;;;;;;;49.28;39.83;;;;;;;;;;5072825;28;20047;-69
2022/06/25 01:12:39;;;;;;;41.05;36.13;;;;;;;;;;5079635;28;20048;-69
2022/06/25 01:15:08;;;;;;;50.90;38.45;;;;;;;;;;5067033;28;20071;-68
2022/06/25 01:17:38;;;;;;;47.60;39.78;;;;;;;;;;5066007;28;20049;-68
2022/06/25 01:20:04;;;;;;;41.20;36.63;;;;;;;;;;5070451;28;20051;-68
2022/06/25 01:22:32;;;;;;;40.50;35.87;;;;;;;;;;5076631;28;20044;-69
2022/06/25 01:24:58;;;;;;;42.63;36.20;;;;;;;;;;5066169;28;20128;-68
2022/06/25 01:27:24;;;;;;;39.30;32.17;;;;;;;;;;5069180;28;20063;-69
2022/06/25 01:29:50;;;;;;;40.67;34.05;;;;;;;;;;5065945;28;20104;-67
2022/06/25 01:32:16;;;;;;;36.92;32.53;;;;;;;;;;5065755;28;20512;-69
2022/06/25 01:34:42;;;;;;;35.83;31.52;;;;;;;;;;5065826;28;20550;-69
2022/06/25 01:37:08;;;;;;;31.42;28.08;;;;;;;;;;5069670;28;20044;-69
2022/06/25 01:39:34;;;;;;;36.40;31.05;;;;;;;;;;5091734;28;20049;-69
2022/06/25 01:42:00;;;;;;;31.20;27.92;;;;;;;;;;5079418;28;20100;-69
2022/06/25 01:44:29;;;;;;;31.45;26.77;;;;;;;;;;5065847;28;20117;-69
2022/06/25 01:46:55;;;;;;;30.85;26.10;;;;;;;;;;5074385;28;20107;-69
2022/06/25 01:49:22;;;;;;;32.47;28.85;;;;;;;;;;5090764;28;20045;-69
2022/06/25 01:51:48;;;;;;;31.15;27.38;;;;;;;;;;5073388;28;20416;-69
2022/06/25 01:54:14;;;;;;;37.25;29.40;;;;;;;;;;5092971;28;20080;-69
2022/06/25 01:56:41;;;;;;;38.28;30.35;;;;;;;;;;5065718;28;20095;-69
2022/06/25 01:59:07;;;;;;;29.20;25.60;;;;;;;;;;5065651;28;20060;-68
2022/06/25 02:01:33;;;;;;;35.08;27.67;;;;;;;;;;5073849;28;20052;-69
2022/06/25 02:03:59;;;;;;;30.05;26.85;;;;;;;;;;5070497;28;20068;-69
2022/06/25 02:06:25;;;;;;;31.17;27.80;;;;;;;;;;5075532;28;20045;-69
2022/06/25 02:08:51;;;;;;;33.20;28.45;;;;;;;;;;5065551;28;20056;-69
2022/06/25 02:11:17;;;;;;;32.03;26.80;;;;;;;;;;5070381;28;20036;-69
2022/06/25 02:13:43;;;;;;;29.70;26.70;;;;;;;;;;5075120;28;20048;-69
2022/06/25 02:16:09;;;;;;;28.77;25.65;;;;;;;;;;5064866;28;20075;-69
2022/06/25 02:18:36;;;;;;;32.03;25.98;;;;;;;;;;5064881;28;20081;-69
2022/06/25 02:21:02;;;;;;;28.70;25.60;;;;;;;;;;5094906;28;20044;-69
2022/06/25 02:23:28;;;;;;;30.55;27.35;;;;;;;;;;5065143;28;20047;-69
2022/06/25 02:25:54;;;;;;;28.20;24.25;;;;;;;;;;5065013;28;20401;-69
2022/06/25 02:28:20;;;;;;;30.70;24.73;;;;;;;;;;5097086;28;20080;-69
2022/06/25 02:30:47;;;;;;;28.70;25.70;;;;;;;;;;5091030;28;20048;-69
2022/06/25 02:33:13;;;;;;;25.58;22.50;;;;;;;;;;5067890;28;20052;-69
2022/06/25 02:35:41;;;;;;;30.73;24.13;;;;;;;;;;5066928;28;20049;-69
2022/06/25 02:38:07;;;;;;;;;;;;;;;;;;5070364;28;20563;-68
2022/06/25 02:40:33;;;;;;;29.65;23.13;;;;;;;;;;5064837;28;19921;-68
2022/06/25 02:43:01;;;;;;;25.67;22.75;;;;;;;;;;5064790;28;20102;-68
2022/06/25 02:45:27;;;;;;;25.20;22.50;;;;;;;;;;5064712;28;20044;-68
2022/06/25 02:47:54;;;;;;;26.38;23.60;;;;;;;;;;5079660;28;20044;-68
2022/06/25 02:50:20;;;;;;;27.07;21.77;;;;;;;;;;5064914;28;20052;-69
2022/06/25 02:52:46;;;;;;;24.85;22.23;;;;;;;;;;5063958;28;20287;-69
2022/06/25 02:55:12;;;;;;;21.77;19.08;;;;;;;;;;5064399;28;20113;-69
2022/06/25 03:00:23;;;;;;;19.60;17.60;;;;;;;;;;5079638;28;20093;-69
2022/06/25 03:02:49;;;;;;;24.38;19.88;;;;;;;;;;5064000;28;20053;-69
2022/06/25 03:05:15;;;;;;;19.75;17.33;;;;;;;;;;5064099;28;20056;-69
2022/06/25 03:07:41;;;;;;;23.23;18.33;;;;;;;;;;5064387;28;20037;-69
2022/06/25 03:10:07;;;;;;;20.65;17.55;;;;;;;;;;5064259;28;20047;-68
2022/06/25 03:12:34;;;;;;;24.08;18.55;;;;;;;;;;5078221;28;20052;-68
2022/06/25 03:15:01;;;;;;;31.67;21.00;;;;;;;;;;5064252;28;20056;-68
2022/06/25 03:17:28;;;;;;;21.77;17.80;;;;;;;;;;5092328;28;20220;-69
2022/06/25 03:19:54;;;;;;;23.83;18.30;;;;;;;;;;5064262;28;20430;-69
2022/06/25 03:22:20;;;;;;;23.75;18.60;;;;;;;;;;5064283;28;20050;-69
2022/06/25 03:24:47;;;;;;;20.30;18.20;;;;;;;;;;5067104;28;20103;-69
2022/06/25 03:27:13;;;;;;;20.63;18.40;;;;;;;;;;5075189;28;20053;-69
2022/06/25 03:29:39;;;;;;;20.70;18.45;;;;;;;;;;5064133;28;20261;-69
2022/06/25 03:32:05;;;;;;;20.30;18.20;;;;;;;;;;5063660;28;20100;-69
2022/06/25 03:34:31;;;;;;;20.88;18.15;;;;;;;;;;5064035;28;20041;-68
2022/06/25 03:36:57;;;;;;;21.38;18.50;;;;;;;;;;5064038;28;20037;-68
2022/06/25 03:39:23;;;;;;;18.90;17.13;;;;;;;;;;5064177;28;20052;-69
2022/06/25 03:41:49;;;;;;;20.58;16.55;;;;;;;;;;5064177;28;20037;-68
2022/06/25 03:44:15;;;;;;;17.00;15.20;;;;;;;;;;5064107;28;20044;-68
2022/06/25 03:46:42;;;;;;;18.00;16.10;;;;;;;;;;5063464;28;20560;-68
2022/06/25 03:49:08;;;;;;;16.55;14.93;;;;;;;;;;5064260;28;20089;-68
2022/06/25 03:51:34;;;;;;;17.85;16.08;;;;;;;;;;5063753;28;20411;-68
2022/06/25 03:54:00;;;;;;;16.17;14.48;;;;;;;;;;5063926;28;20052;-67
2022/06/25 03:56:27;;;;;;;16.75;15.05;;;;;;;;;;5064059;28;20060;-68
2022/06/25 03:58:53;;;;;;;19.27;15.18;;;;;;;;;;5078096;28;20511;-68
2022/06/25 04:01:20;;;;;;;16.55;14.80;;;;;;;;;;5079373;28;20082;-68
2022/06/25 04:03:47;;;;;;;16.45;14.88;;;;;;;;;;5078472;28;20055;-68
2022/06/25 04:06:13;;;;;;;16.02;14.38;;;;;;;;;;5076414;28;20057;-68
2022/06/25 04:08:39;;;;;;;16.08;14.38;;;;;;;;;;5073321;28;20056;-68
2022/06/25 04:11:05;;;;;;;15.40;13.85;;;;;;;;;;5069922;28;20045;-68
2022/06/25 04:13:31;;;;;;;16.15;13.57;;;;;;;;;;5079232;28;20083;-68
2022/06/25 04:15:58;;;;;;;17.83;13.83;;;;;;;;;;5072125;28;20591;-67
2022/06/25 04:18:24;;;;;;;17.13;13.05;;;;;;;;;;5067180;28;20147;-68
2022/06/25 04:20:50;;;;;;;14.30;12.90;;;;;;;;;;5067559;28;20084;-68
2022/06/25 04:23:16;;;;;;;14.43;12.70;;;;;;;;;;5067144;28;20074;-68
2022/06/25 04:25:42;;;;;;;14.30;12.63;;;;;;;;;;5067716;28;20048;-67
2022/06/25 04:30:53;;;;;;;12.60;11.30;;;;;;;;;;5067317;28;20060;-67
2022/06/25 04:33:19;;;;;;;12.93;11.63;;;;;;;;;;5066561;28;20040;-68
2022/06/25 04:35:45;;;;;;;11.68;10.48;;;;;;;;;;5066989;28;20105;-67
2022/06/25 04:38:11;;;;;;;12.13;10.98;;;;;;;;;;5081119;28;20055;-67
2022/06/25 04:40:37;;;;;;;12.55;11.23;;;;;;;;;;5067165;28;20056;-67
2022/06/25 04:43:03;;;;;;;12.25;10.75;;;;;;;;;;5067040;28;20041;-67
2022/06/25 04:45:29;;;;;;;12.38;10.50;;;;;;;;;;5066929;28;20069;-67
2022/06/25 04:48:02;;;;;;;11.40;10.20;;;;;;;;;;5066432;28;20583;-67
2022/06/25 04:50:28;;;;;;;11.48;10.30;;;;;;;;;;5067157;28;20052;-67
2022/06/25 04:52:54;;;;;;;11.23;10.10;;;;;;;;;;5077604;28;20040;-68
2022/06/25 04:55:20;;;;;;;11.18;10.02;;;;;;;;;;5082686;28;20063;-67
2022/06/25 04:57:46;;;;;;;12.43;10.20;;;;;;;;;;5066872;28;20045;-67
2022/06/25 05:00:12;;;;;;;10.63;9.25;;;;;;;;;;5081430;28;20044;-67
2022/06/25 05:02:39;;;;;;;10.68;9.10;;;;;;;;;;5078203;28;20140;-67
2022/06/25 05:05:06;;;;;;;12.70;9.30;;;;;;;;;;5067899;28;20051;-68
2022/06/25 05:07:32;;;;;;;10.98;9.88;;;;;;;;;;5067450;28;20299;-68
2022/06/25 05:09:58;;;;;;;11.27;9.57;;;;;;;;;;5066801;28;20033;-67
2022/06/25 05:15:09;;;;;;;10.00;8.98;;;;;;;;;;5077885;28;20052;-67
2022/06/25 05:17:35;;;;;;;10.43;9.35;;;;;;;;;;5066044;28;20092;-68
2022/06/25 05:20:01;;;;;;;13.05;9.27;;;;;;;;;;5066602;28;20049;-66
2022/06/25 05:22:27;;;;;;;12.38;9.07;;;;;;;;;;5066641;28;20112;-66
2022/06/25 05:24:54;;;;;;;9.45;8.45;;;;;;;;;;5066304;28;20040;-66
2022/06/25 05:27:23;;;;;;;10.35;8.50;;;;;;;;;;5081651;28;20052;-67
2022/06/25 05:29:50;;;;;;;9.88;8.82;;;;;;;;;;5080453;28;20263;-67
2022/06/25 05:32:16;;;;;;;10.02;8.27;;;;;;;;;;5065428;28;20408;-67
2022/06/25 05:34:42;;;;;;;11.40;8.90;;;;;;;;;;5066844;28;20048;-67
2022/06/25 05:37:08;;;;;;;8.63;7.82;;;;;;;;;;5079366;28;20029;-66
2022/06/25 05:39:34;;;;;;;12.65;8.65;;;;;;;;;;5066139;28;20094;-67
2022/06/25 05:42:00;;;;;;;8.50;7.70;;;;;;;;;;5065958;28;20040;-67
2022/06/25 05:44:26;;;;;;;13.85;8.48;;;;;;;;;;5077118;28;20044;-66
2022/06/25 05:46:53;;;;;;;8.77;7.03;;;;;;;;;;5070981;28;20041;-67
2022/06/25 05:49:19;;;;;;;9.15;7.43;;;;;;;;;;5076947;28;20083;-67
2022/06/25 05:51:46;;;;;;;11.30;7.88;;;;;;;;;;5065413;28;20076;-68
2022/06/25 05:54:12;;;;;;;8.35;7.43;;;;;;;;;;5065661;28;20052;-67
2022/06/25 05:56:38;;;;;;;7.95;7.15;;;;;;;;;;5080411;28;20108;-68
2022/06/25 05:59:04;;;;;;;15.48;7.70;;;;;;;;;;5066268;28;20411;-67
2022/06/25 06:01:30;;;;;;;8.20;7.32;;;;;;;;;;5080349;28;20049;-67
2022/06/25 06:03:56;;;;;;;10.10;6.97;;;;;;;;;;5068989;28;20106;-67
2022/06/25 06:06:22;;;;;;;11.93;7.88;;;;;;;;;;5076219;28;20051;-67
2022/06/25 06:08:48;;;;;;;7.20;6.35;;;;;;;;;;5095010;28;20045;-67
2022/06/25 06:11:14;;;;;;;7.55;6.85;;;;;;;;;;5068971;28;20041;-67
2022/06/25 06:13:41;;;;;;;8.30;6.38;;;;;;;;;;5076031;28;20396;-67
2022/06/25 06:16:07;;;;;;;8.27;6.40;;;;;;;;;;5064861;28;20420;-67
2022/06/25 06:18:33;;;;;;;9.20;6.00;;;;;;;;;;5064785;28;20284;-67
2022/06/25 06:21:00;;;;;;;7.53;6.28;;;;;;;;;;5065514;28;20092;-67
2022/06/25 06:23:26;;;;;;;13.80;6.45;;;;;;;;;;5065252;28;20132;-67
2022/06/25 06:25:52;;;;;;;7.53;5.97;;;;;;;;;;5065329;28;20059;-67
2022/06/25 06:28:18;;;;;;;8.93;6.80;;;;;;;;;;5065016;28;20040;-68
2022/06/25 06:30:46;;;;;;;7.05;5.45;;;;;;;;;;5064972;28;20055;-67
2022/06/25 06:33:12;;;;;;;8.93;5.72;;;;;;;;;;5064530;28;20179;-68
2022/06/25 06:35:38;;;;;;;10.63;6.32;;;;;;;;;;5080492;28;20053;-67
2022/06/25 06:38:04;;;;;;;10.23;6.35;;;;;;;;;;5065055;28;20045;-68
2022/06/25 06:40:30;;;;;;;10.02;6.03;;;;;;;;;;5078525;28;20041;-68
2022/06/25 06:42:57;;;;;;;10.02;5.97;;;;;;;;;;5064822;28;20550;-67
2022/06/25 06:45:23;;;;;;;8.48;5.53;;;;;;;;;;5094356;28;20060;-67
2022/06/25 06:47:49;;;;;;;7.78;6.50;;;;;;;;;;5064491;28;20041;-68
2022/06/25 06:50:15;;;;;;;7.55;5.47;;;;;;;;;;5078811;28;20050;-67
2022/06/25 06:52:41;;;;;;;10.57;5.53;;;;;;;;;;5064582;28;20041;-68
2022/06/25 06:55:08;;;;;;;8.82;5.63;;;;;;;;;;5064350;28;20116;-68
2022/06/25 06:57:35;;;;;;;;;;;;;;;;;;5065053;28;20056;-68
2022/06/25 07:00:04;;;;;;;8.63;5.63;;;;;;;;;;5064707;28;19947;-68
2022/06/25 07:02:30;;;;;;;10.65;6.00;;;;;;;;;;5080816;28;20040;-68
2022/06/25 07:04:56;;;;;;;8.90;5.78;;;;;;;;;;5092819;28;20040;-68
2022/06/25 07:07:23;;;;;;;6.22;5.32;;;;;;;;;;5083762;28;20056;-68
2022/06/25 07:09:49;;;;;;;6.03;5.20;;;;;;;;;;5084222;28;20517;-68
2022/06/25 07:12:15;;;;;;;5.50;4.55;;;;;;;;;;5084454;28;20113;-68
2022/06/25 07:14:41;;;;;;;6.85;4.50;;;;;;;;;;5066487;28;20055;-68
2022/06/25 07:17:07;;;;;;;5.82;5.10;;;;;;;;;;5068997;28;20105;-68
2022/06/25 07:19:33;;;;;;;6.95;4.13;;;;;;;;;;5069713;28;20054;-68
2022/06/25 07:21:59;;;;;;;7.82;4.45;;;;;;;;;;5072503;28;20083;-68
2022/06/25 07:24:26;;;;;;;7.63;5.15;;;;;;;;;;5070156;28;20096;-68
2022/06/25 07:26:52;;;;;;;8.70;5.00;;;;;;;;;;5073461;28;20120;-68
2022/06/25 07:29:18;;;;;;;6.07;4.80;;;;;;;;;;5076610;28;20106;-68
2022/06/25 07:31:44;;;;;;;5.38;3.70;;;;;;;;;;5080529;28;20065;-68
2022/06/25 07:34:10;;;;;;;7.05;4.35;;;;;;;;;;5073292;28;20049;-68
2022/06/25 07:36:36;;;;;;;5.97;4.53;;;;;;;;;;5077489;28;20108;-68
2022/06/25 07:39:02;;;;;;;7.55;3.85;;;;;;;;;;5076518;28;20109;-68
2022/06/25 07:41:29;;;;;;;4.18;3.22;;;;;;;;;;5074162;28;20068;-68
2022/06/25 07:43:55;;;;;;;7.47;4.22;;;;;;;;;;5093851;28;20431;-69
2022/06/25 07:46:21;;;;;;;5.95;4.15;;;;;;;;;;5086951;28;20044;-69
2022/06/25 07:48:47;;;;;;;8.00;4.00;;;;;;;;;;5069585;28;20049;-69
2022/06/25 07:53:58;;;;;;;7.28;3.95;;;;;;;;;;5081234;28;20067;-69
2022/06/25 07:56:24;;;;;;;6.18;3.38;;;;;;;;;;5067785;28;20049;-69
2022/06/25 07:58:50;;;;;;;4.70;3.08;;;;;;;;;;5067849;28;20094;-69
2022/06/25 08:01:16;;;;;;;8.88;3.15;;;;;;;;;;5078304;28;20127;-69
2022/06/25 08:03:42;;;;;;;4.38;2.95;;;;;;;;;;5072928;28;20083;-69
2022/06/25 08:06:10;;;;;;;5.10;3.22;;;;;;;;;;5079918;28;20045;-69
2022/06/25 08:08:36;;;;;;;6.32;3.00;;;;;;;;;;5067621;28;20088;-69
2022/06/25 08:11:03;;;;;;;7.47;2.65;;;;;;;;;;5091434;28;20080;-69
2022/06/25 08:13:29;;;;;;;3.75;2.10;;;;;;;;;;5102487;28;20040;-69
2022/06/25 08:15:55;;;;;;;3.70;2.05;;;;;;;;;;5085924;28;20538;-69
2022/06/25 08:18:22;;;;;;;4.43;2.35;;;;;;;;;;5085487;28;20045;-70
2022/06/25 08:20:48;;;;;;;3.15;1.85;;;;;;;;;;5086713;28;20054;-69
2022/06/25 08:23:16;;;;;;;3.15;1.88;;;;;;;;;;5075760;28;20123;-69
2022/06/25 08:25:42;;;;;;;6.10;2.63;;;;;;;;;;5084733;28;20102;-70
2022/06/25 08:28:08;;;;;;;7.53;2.78;;;;;;;;;;5070611;28;20104;-69
2022/06/25 08:30:35;;;;;;;4.53;2.55;;;;;;;;;;5089159;28;20060;-69
2022/06/25 08:33:01;;;;;;;4.07;2.13;;;;;;;;;;5081017;28;20055;-70
2022/06/25 08:35:27;;;;;;;4.25;2.13;;;;;;;;;;5075755;28;20315;-70
2022/06/25 08:37:54;;;;;;;4.25;2.20;;;;;;;;;;5086921;28;20051;-70
2022/06/25 08:40:20;;;;;;;5.05;1.83;;;;;;;;;;5069716;28;20562;-71
2022/06/25 08:42:49;;;;;;;6.30;2.30;;;;;;;;;;5076928;28;20084;-71
2022/06/25 08:45:17;;;;;;;5.28;2.03;;;;;;;;;;5069384;28;20063;-71
2022/06/25 08:47:47;;;;;;;5.93;2.63;;;;;;;;;;5095781;28;20088;-70
2022/06/25 08:50:14;;;;;;;3.42;1.63;;;;;;;;;;5084157;28;20040;-71
2022/06/25 08:52:43;;;;;;;7.40;2.00;;;;;;;;;;5085705;28;20048;-70
2022/06/25 08:55:10;;;;;;;6.45;1.83;;;;;;;;;;5083978;28;20586;-70
2022/06/25 08:57:36;;;;;;;4.38;2.05;;;;;;;;;;5082215;28;20072;-70
2022/06/25 09:00:03;;;;;;;5.00;2.67;;;;;;;;;;5066949;28;20534;-70
2022/06/25 09:02:30;;;;;;;3.92;1.77;;;;;;;;;;5082640;28;20048;-70
2022/06/25 09:04:56;;;;;;;4.13;1.90;;;;;;;;;;5076077;28;20109;-70
2022/06/25 09:07:22;;;;;;;5.45;2.10;;;;;;;;;;5078755;28;20048;-70
2022/06/25 09:09:49;;;;;;;7.00;2.35;;;;;;;;;;5083763;28;20476;-71
2022/06/25 09:12:16;;;;;;;3.22;1.70;;;;;;;;;;5074917;28;20055;-71
2022/06/25 09:14:42;;;;;;;2.83;2.10;;;;;;;;;;5084535;28;20047;-71
2022/06/25 09:17:12;;;;;;;5.03;2.45;;;;;;;;;;5082751;28;20769;-71
2022/06/25 09:19:39;;;;;;;6.70;2.33;;;;;;;;;;5096237;28;20052;-71
2022/06/25 09:22:10;;;;;;;4.07;2.55;;;;;;;;;;5082566;28;20100;-70
2022/06/25 09:24:40;;;;;;;6.38;2.33;;;;;;;;;;5089864;28;20100;-70
2022/06/25 09:27:07;;;;;;;14.88;2.30;;;;;;;;;;5085813;28;20072;-70
2022/06/25 09:29:36;;;;;;;6.65;3.30;;;;;;;;;;5084079;28;20142;-70
2022/06/25 09:32:03;;;;;;;3.30;1.50;;;;;;;;;;5090355;28;20127;-70
2022/06/25 09:34:36;;;;;;;3.22;1.90;;;;;;;;;;5083992;28;20083;-70
2022/06/25 09:37:34;;;;;;;4.57;1.55;;;;;;;;;;5073153;28;20235;-70
2022/06/25 09:40:00;;;;;;;3.53;1.35;;;;;;;;;;5069483;28;20061;-70
2022/06/25 09:42:31;;;;;;;3.88;1.20;;;;;;;;;;5063607;28;20101;-70
2022/06/25 09:45:06;;;;;;;2.38;1.20;;;;;;;;;;5062770;28;20128;-71
2022/06/25 09:47:46;;;;;;;4.03;1.67;;;;;;;;;;5062327;28;20056;-71
2022/06/25 09:50:13;;;;;;;8.30;1.45;;;;;;;;;;5065832;28;20065;-70
2022/06/25 09:52:49;;;;;;;3.90;1.77;;;;;;;;;;5067452;28;20068;-71
2022/06/25 09:55:15;;;;;;;4.80;1.88;;;;;;;;;;5062417;28;20053;-71
2022/06/25 09:57:42;;;;;;;6.40;1.70;;;;;;;;;;5062947;28;20105;-71
2022/06/25 10:00:10;;;;;;;3.53;1.55;;;;;;;;;;5046152;28;20060;-71
2022/06/25 10:02:36;;;;;;;5.95;1.48;;;;;;;;;;5027574;28;20053;-71
2022/06/25 10:05:04;;;;;;;2.55;1.40;;;;;;;;;;5065054;28;20493;-71
2022/06/25 10:10:20;;;;;;;4.43;1.65;;;;;;;;;;5068152;28;20101;-71
2022/06/25 10:12:47;;;;;;;4.15;1.45;;;;;;;;;;5061272;28;20048;-71
2022/06/25 10:15:16;;;;;;;3.35;1.35;;;;;;;;;;5063289;28;20052;-71
2022/06/25 10:17:43;;;;;;;4.85;1.65;;;;;;;;;;5078210;28;20071;-71
2022/06/25 10:20:09;;;;;;;3.85;1.38;;;;;;;;;;5075666;28;20032;-71
2022/06/25 10:22:37;;;;;;;4.43;1.48;;;;;;;;;;5082822;28;20040;-72
2022/06/25 10:25:03;;;;;;;3.88;1.67;;;;;;;;;;5084687;28;20155;-72
2022/06/25 10:27:37;;;;;;;2.47;1.30;;;;;;;;;;5073357;28;20077;-72
2022/06/25 10:30:03;;;;;;;3.00;1.05;;;;;;;;;;5082111;28;20060;-72
2022/06/25 10:32:34;;;;;;;3.77;1.10;;;;;;;;;;5082532;28;20084;-72
2022/06/25 10:35:02;;;;;;;3.28;1.25;;;;;;;;;;5080908;28;20041;-72
2022/06/25 10:37:28;;;;;;;2.85;1.30;;;;;;;;;;5080046;28;20041;-72
2022/06/25 10:39:55;;;;;;;5.97;1.67;;;;;;;;;;5081316;28;20063;-72
2022/06/25 10:45:06;;;;;;;3.00;1.33;;;;;;;;;;5084273;28;20048;-72
2022/06/25 10:47:39;;;;;;;3.97;1.20;;;;;;;;;;5080571;28;20099;-72
2022/06/25 10:50:20;;;;;;;2.45;1.80;;;;;;;;;;5092911;28;20040;-72
2022/06/25 10:53:02;;;;;;;2.35;1.00;;;;;;;;;;5103079;28;20047;-72
2022/06/25 10:55:33;;;;;;;2.58;1.00;;;;;;;;;;5082890;28;20048;-73
2022/06/25 10:58:22;;;;;;;3.00;1.23;;;;;;;;;;5082750;28;20041;-72
2022/06/25 11:00:53;;;;;;;3.08;1.10;;;;;;;;;;5072548;28;20056;-72
2022/06/25 11:03:39;;;;;;;1.60;0.90;;;;;;;;;;5073211;28;20127;-72
2022/06/25 11:06:19;;;;;;;5.65;1.45;;;;;;;;;;5079503;28;20051;-73
2022/06/25 11:08:45;;;;;;;3.15;1.20;;;;;;;;;;5079309;28;20056;-72
2022/06/25 11:11:11;;;;;;;3.40;1.55;;;;;;;;;;5075476;28;20056;-72
2022/06/25 11:13:41;;;;;;;3.28;1.08;;;;;;;;;;5078790;28;20041;-73
2022/06/25 11:16:17;;;;;;;2.42;1.40;;;;;;;;;;5077072;28;20048;-74
2022/06/25 11:18:50;;;;;;;5.60;1.58;;;;;;;;;;5074814;28;20041;-65
2022/06/25 11:21:28;;;;;;;5.63;1.20;;;;;;;;;;5093613;28;20063;-63
2022/06/25 11:24:08;;;;;;;3.20;1.08;;;;;;;;;;5079559;28;20045;-63
2022/06/25 11:29:26;;;;;;;2.70;1.02;;;;;;;;;;5072411;28;20051;-62
2022/06/25 11:31:53;;;;;;;7.97;2.05;;;;;;;;;;5094074;28;20056;-62
2022/06/25 11:34:20;;;;;;;2.78;1.60;;;;;;;;;;5081610;28;20530;-62
2022/06/25 11:37:00;;;;;;;5.15;1.25;;;;;;;;;;5083068;28;20051;-62
2022/06/25 11:39:27;;;;;;;2.65;1.35;;;;;;;;;;5083750;28;20044;-62
2022/06/25 11:41:53;;;;;;;2.58;1.48;;;;;;;;;;5083889;28;20044;-62
2022/06/25 11:44:19;;;;;;;3.15;1.35;;;;;;;;;;5078176;28;20228;-62
2022/06/25 11:46:47;;;;;;;3.72;1.33;;;;;;;;;;5071312;28;20136;-62
2022/06/25 11:49:13;;;;;;;3.08;1.23;;;;;;;;;;5083395;28;20079;-62
2022/06/25 11:51:58;;;;;;;2.03;1.13;;;;;;;;;;5088443;28;20049;-62
2022/06/25 11:54:25;;;;;;;3.17;1.42;;;;;;;;;;5083458;28;20362;-62
2022/06/25 11:56:53;;;;;;;3.25;1.23;;;;;;;;;;5078864;28;20041;-62
2022/06/25 11:59:23;;;;;;;2.13;1.30;;;;;;;;;;5096206;28;20508;-62
2022/06/25 12:01:52;;;;;;;3.25;1.13;;;;;;;;;;5078056;28;20127;-62
2022/06/25 12:04:18;;;;;;;5.07;1.23;;;;;;;;;;5095349;28;20142;-62
2022/06/25 12:06:45;;;;;;;1.87;1.00;;;;;;;;;;5074011;28;20060;-63
2022/06/25 12:09:13;;;;;;;3.60;1.05;;;;;;;;;;5098911;28;20166;-63
2022/06/25 12:11:39;;;;;;;3.08;1.27;;;;;;;;;;5079827;28;20080;-63
2022/06/25 12:14:05;;;;;;;1.88;0.90;;;;;;;;;;5082758;28;20100;-62
2022/06/25 12:16:44;;;;;;;3.17;1.02;;;;;;;;;;5081622;28;20071;-62
2022/06/25 12:19:10;;;;;;;1.17;0.70;;;;;;;;;;5082953;28;20040;-62
2022/06/25 12:21:37;;;;;;;3.92;0.80;;;;;;;;;;5082365;28;20048;-62
2022/06/25 12:24:04;;;;;;;3.40;0.82;;;;;;;;;;5082513;28;20087;-62
2022/06/25 12:26:34;;;;;;;2.55;1.15;;;;;;;;;;5084140;28;20123;-61
2022/06/25 12:29:06;;;;;;;4.30;1.13;;;;;;;;;;5084566;28;20070;-62
2022/06/25 12:31:33;;;;;;;3.90;1.27;;;;;;;;;;5084872;28;20040;-62
2022/06/25 12:34:01;;;;;;;2.95;1.10;;;;;;;;;;5082388;28;20086;-62
2022/06/25 12:36:27;;;;;;;2.88;1.27;;;;;;;;;;5085627;28;20032;-62
2022/06/25 12:38:54;;;;;;;5.18;1.20;;;;;;;;;;5102985;28;20106;-62
2022/06/25 12:41:20;;;;;;;6.22;1.23;;;;;;;;;;5087288;28;20096;-62
2022/06/25 12:43:46;;;;;;;3.63;1.30;;;;;;;;;;5086730;28;20050;-62
2022/06/25 12:46:13;;;;;;;5.80;1.23;;;;;;;;;;5087102;28;20080;-62
2022/06/25 12:48:40;;;;;;;4.40;1.55;;;;;;;;;;5102160;28;20059;-62
2022/06/25 12:51:10;;;;;;;3.85;1.48;;;;;;;;;;5087065;28;20123;-62
2022/06/25 12:53:36;;;;;;;3.97;1.60;;;;;;;;;;5085271;28;20052;-63
2022/06/25 12:56:03;;;;;;;7.13;1.43;;;;;;;;;;5087095;28;20056;-62
2022/06/25 12:58:35;;;;;;;3.65;1.70;;;;;;;;;;5102370;28;20112;-62
2022/06/25 13:01:01;;;;;;;4.32;1.60;;;;;;;;;;5086911;28;20044;-62
2022/06/25 13:03:27;;;;;;;3.65;1.70;;;;;;;;;;5085955;28;20079;-62
2022/06/25 13:05:54;;;;;;;5.55;1.85;;;;;;;;;;5086133;28;20040;-62
2022/06/25 13:08:20;;;;;;;5.10;1.60;;;;;;;;;;5086708;28;20041;-62
2022/06/25 13:10:47;;;;;;;4.70;1.90;;;;;;;;;;5086510;28;20500;-63
2022/06/25 13:13:13;;;;;;;15.95;2.25;;;;;;;;;;5080678;28;20096;-62
2022/06/25 13:15:39;;;;;;;3.85;1.60;;;;;;;;;;5078515;28;20170;-62
2022/06/25 13:18:06;;;;;;;7.78;1.95;;;;;;;;;;5082009;28;20045;-62
2022/06/25 13:20:32;;;;;;;3.47;1.88;;;;;;;;;;5076590;28;20044;-63
2022/06/25 13:22:58;;;;;;;5.72;2.35;;;;;;;;;;5070334;28;20091;-63
2022/06/25 13:25:24;;;;;;;8.13;3.47;;;;;;;;;;5068501;28;20131;-63
2022/06/25 13:27:51;;;;;;;9.35;4.10;;;;;;;;;;5066013;28;20051;-63
2022/06/25 13:30:18;;;;;;;11.30;4.18;;;;;;;;;;5066452;28;20069;-63
2022/06/25 13:32:44;;;;;;;6.47;4.00;;;;;;;;;;5078137;28;20048;-62
2022/06/25 13:35:10;;;;;;;5.22;2.90;;;;;;;;;;5067325;28;20085;-63
2022/06/25 13:37:36;;;;;;;5.63;3.42;;;;;;;;;;5065626;28;20134;-63
2022/06/25 13:40:03;;;;;;;5.30;2.92;;;;;;;;;;5066290;28;20045;-63
2022/06/25 13:42:29;;;;;;;5.15;3.05;;;;;;;;;;5081560;28;20067;-63
2022/06/25 13:44:55;;;;;;;5.65;2.92;;;;;;;;;;5066881;28;20053;-63
2022/06/25 13:47:21;;;;;;;5.10;2.97;;;;;;;;;;5077397;28;20101;-63
2022/06/25 13:49:48;;;;;;;6.50;3.42;;;;;;;;;;5065986;28;20053;-63
2022/06/25 13:52:15;;;;;;;6.68;3.47;;;;;;;;;;5079711;28;20044;-63
2022/06/25 13:54:41;;;;;;;7.95;3.58;;;;;;;;;;5080969;28;20053;-63
2022/06/25 13:57:07;;;;;;;6.32;3.38;;;;;;;;;;5095294;28;20507;-63
2022/06/25 13:59:33;;;;;;;8.98;4.53;;;;;;;;;;5065800;28;20110;-63
2022/06/25 14:01:59;;;;;;;5.95;3.67;;;;;;;;;;5065159;28;20037;-63
2022/06/25 14:04:25;;;;;;;5.85;3.40;;;;;;;;;;5072812;28;20051;-63
2022/06/25 14:06:51;;;;;;;5.70;3.00;;;;;;;;;;5072170;28;20116;-63
2022/06/25 14:09:18;;;;;;;5.77;3.30;;;;;;;;;;5064408;28;20039;-63
2022/06/25 14:11:44;;;;;;;4.75;3.38;;;;;;;;;;5088394;28;20104;-64
2022/06/25 14:14:11;;;;;;;4.23;3.10;;;;;;;;;;5085516;28;20072;-64
2022/06/25 14:16:37;;;;;;;4.30;2.90;;;;;;;;;;5064635;28;20045;-64
2022/06/25 14:19:03;;;;;;;7.20;3.22;;;;;;;;;;5080758;28;20056;-64
2022/06/25 14:21:30;;;;;;;5.03;2.33;;;;;;;;;;5083216;28;20040;-64
2022/06/25 14:23:56;;;;;;;4.65;2.80;;;;;;;;;;5074049;28;20072;-64
2022/06/25 14:26:22;;;;;;;7.33;2.53;;;;;;;;;;5067455;28;20077;-64
2022/06/25 14:28:48;;;;;;;5.53;2.23;;;;;;;;;;5077009;28;20087;-64
2022/06/25 14:31:15;;;;;;;3.50;2.20;;;;;;;;;;5079236;28;20052;-64
2022/06/25 14:33:41;;;;;;;3.83;2.15;;;;;;;;;;5084330;28;20051;-63
2022/06/25 14:44:23;;;;;;;5.80;1.50;;;;;;;;;;5065035;28;20072;-64
2022/06/25 14:46:49;;;;;;;4.05;1.48;;;;;;;;;;5064081;28;20083;-64
2022/06/25 14:49:15;;;;;;;3.55;1.30;;;;;;;;;;5072501;28;20048;-65
2022/06/25 14:51:41;;;;;;;4.95;1.70;;;;;;;;;;5070215;28;20408;-64
2022/06/25 14:54:08;;;;;;;1.77;1.20;;;;;;;;;;5064835;28;20057;-64
2022/06/25 14:56:34;;;;;;;;;;;;;;;;;;5077773;28;20049;-65
2022/06/25 14:59:00;;;;;;;6.00;1.30;;;;;;;;;;5064503;28;19925;-64
2022/06/25 15:01:26;;;;;;;3.83;1.15;;;;;;;;;;5064477;28;20045;-65
2022/06/25 15:03:52;;;;;;;2.08;1.05;;;;;;;;;;5066988;28;20534;-65